sensor_id;sensor_type;location;lat;lon;timestamp;P1;durP1;ratioP1;P2;durP2;ratioP2
25758;SDS011;13604;52.496;13.456;2023-12-14T00:01:30;41.50;;;19.55;;
25758;SDS011;13604;52.496;13.456;2023-12-14T00:03:55;40.60;;;18.77;;
25758;SDS011;13604;52.496;13.456;2023-12-14T00:06:20;50.75;;;19.80;;
25758;SDS011;13604;52.496;13.456;2023-12-14T00:08:45;48.20;;;18.75;;
25758;SDS011;13604;52.496;13.456;2023-12-14T00:11:11;45.38;;;18.98;;
25758;SDS011;13604;52.496;13.456;2023-12-14T00:13:37;45.90;;;19.25;;
25758;SDS011;13604;52.496;13.456;2023-12-14T00:16:03;46.47;;;19.13;;
25758;SDS011;13604;52.496;13.456;2023-12-14T00:18:28;41.22;;;19.13;;
25758;SDS011;13604;52.496;13.456;2023-12-14T00:20:54;49.13;;;19.65;;
25758;SDS011;13604;52.496;13.456;2023-12-14T00:23:20;44.08;;;19.27;;
25758;SDS011;13604;52.496;13.456;2023-12-14T00:25:45;45.70;;;19.67;;
25758;SDS011;13604;52.496;13.456;2023-12-14T00:28:11;47.13;;;20.77;;
25758;SDS011;13604;52.496;13.456;2023-12-14T00:30:37;42.33;;;19.98;;
25758;SDS011;13604;52.496;13.456;2023-12-14T00:33:02;47.35;;;19.45;;
25758;SDS011;13604;52.496;13.456;2023-12-14T00:35:27;44.83;;;19.05;;
25758;SDS011;13604;52.496;13.456;2023-12-14T00:37:53;46.97;;;20.23;;
25758;SDS011;13604;52.496;13.456;2023-12-14T00:40:18;46.42;;;18.83;;
25758;SDS011;13604;52.496;13.456;2023-12-14T00:42:43;46.55;;;20.13;;
25758;SDS011;13604;52.496;13.456;2023-12-14T00:45:09;44.10;;;19.55;;
25758;SDS011;13604;52.496;13.456;2023-12-14T00:47:34;42.17;;;18.95;;
25758;SDS011;13604;52.496;13.456;2023-12-14T00:49:59;46.50;;;19.35;;
25758;SDS011;13604;52.496;13.456;2023-12-14T00:52:25;38.33;;;18.80;;
25758;SDS011;13604;52.496;13.456;2023-12-14T00:54:50;45.15;;;18.83;;
25758;SDS011;13604;52.496;13.456;2023-12-14T00:57:15;45.17;;;18.50;;
25758;SDS011;13604;52.496;13.456;2023-12-14T00:59:41;46.85;;;19.08;;
25758;SDS011;13604;52.496;13.456;2023-12-14T01:02:06;40.10;;;18.45;;
25758;SDS011;13604;52.496;13.456;2023-12-14T01:04:32;48.67;;;18.98;;
25758;SDS011;13604;52.496;13.456;2023-12-14T01:06:57;44.10;;;19.10;;
25758;SDS011;13604;52.496;13.456;2023-12-14T01:09:22;42.88;;;18.23;;
25758;SDS011;13604;52.496;13.456;2023-12-14T01:11:48;42.38;;;18.02;;
25758;SDS011;13604;52.496;13.456;2023-12-14T01:14:13;39.42;;;17.55;;
25758;SDS011;13604;52.496;13.456;2023-12-14T01:16:38;42.92;;;16.58;;
25758;SDS011;13604;52.496;13.456;2023-12-14T01:19:03;44.13;;;17.52;;
25758;SDS011;13604;52.496;13.456;2023-12-14T01:21:30;37.65;;;18.25;;
25758;SDS011;13604;52.496;13.456;2023-12-14T01:23:56;39.67;;;16.98;;
25758;SDS011;13604;52.496;13.456;2023-12-14T01:26:21;41.50;;;17.75;;
25758;SDS011;13604;52.496;13.456;2023-12-14T01:28:47;38.67;;;16.85;;
25758;SDS011;13604;52.496;13.456;2023-12-14T01:31:12;39.88;;;17.00;;
25758;SDS011;13604;52.496;13.456;2023-12-14T01:33:37;34.65;;;16.98;;
25758;SDS011;13604;52.496;13.456;2023-12-14T01:36:02;44.70;;;18.52;;
25758;SDS011;13604;52.496;13.456;2023-12-14T01:38:28;38.97;;;16.48;;
25758;SDS011;13604;52.496;13.456;2023-12-14T01:40:53;39.42;;;17.67;;
25758;SDS011;13604;52.496;13.456;2023-12-14T01:43:20;38.75;;;16.63;;
25758;SDS011;13604;52.496;13.456;2023-12-14T01:45:46;36.60;;;17.00;;
25758;SDS011;13604;52.496;13.456;2023-12-14T01:48:11;35.60;;;15.52;;
25758;SDS011;13604;52.496;13.456;2023-12-14T01:50:37;43.17;;;16.42;;
25758;SDS011;13604;52.496;13.456;2023-12-14T01:53:03;33.50;;;15.50;;
25758;SDS011;13604;52.496;13.456;2023-12-14T01:55:28;33.10;;;15.07;;
25758;SDS011;13604;52.496;13.456;2023-12-14T01:57:54;34.08;;;14.32;;
25758;SDS011;13604;52.496;13.456;2023-12-14T02:00:42;41.53;;;15.23;;
25758;SDS011;13604;52.496;13.456;2023-12-14T02:03:11;36.03;;;15.45;;
25758;SDS011;13604;52.496;13.456;2023-12-14T02:05:37;29.00;;;13.50;;
25758;SDS011;13604;52.496;13.456;2023-12-14T02:08:02;32.03;;;13.95;;
25758;SDS011;13604;52.496;13.456;2023-12-14T02:10:27;29.30;;;13.90;;
25758;SDS011;13604;52.496;13.456;2023-12-14T02:12:53;28.83;;;13.40;;
25758;SDS011;13604;52.496;13.456;2023-12-14T02:15:18;32.28;;;15.15;;
25758;SDS011;13604;52.496;13.456;2023-12-14T02:17:43;31.17;;;13.43;;
25758;SDS011;13604;52.496;13.456;2023-12-14T02:20:09;29.42;;;14.20;;
25758;SDS011;13604;52.496;13.456;2023-12-14T02:22:50;23.73;;;12.73;;
25758;SDS011;13604;52.496;13.456;2023-12-14T02:25:22;27.85;;;12.52;;
25758;SDS011;13604;52.496;13.456;2023-12-14T02:27:49;22.75;;;11.63;;
25758;SDS011;13604;52.496;13.456;2023-12-14T02:30:16;24.75;;;11.70;;
25758;SDS011;13604;52.496;13.456;2023-12-14T02:32:42;20.00;;;11.25;;
25758;SDS011;13604;52.496;13.456;2023-12-14T02:35:08;21.60;;;10.25;;
25758;SDS011;13604;52.496;13.456;2023-12-14T02:37:33;23.50;;;12.18;;
25758;SDS011;13604;52.496;13.456;2023-12-14T02:40:02;21.77;;;11.25;;
25758;SDS011;13604;52.496;13.456;2023-12-14T02:42:28;22.60;;;11.25;;
25758;SDS011;13604;52.496;13.456;2023-12-14T02:44:53;23.25;;;12.25;;
25758;SDS011;13604;52.496;13.456;2023-12-14T02:47:19;23.52;;;11.70;;
25758;SDS011;13604;52.496;13.456;2023-12-14T02:49:44;30.63;;;14.30;;
25758;SDS011;13604;52.496;13.456;2023-12-14T02:52:09;28.85;;;14.25;;
25758;SDS011;13604;52.496;13.456;2023-12-14T02:54:36;35.40;;;15.18;;
25758;SDS011;13604;52.496;13.456;2023-12-14T02:57:03;32.55;;;14.77;;
25758;SDS011;13604;52.496;13.456;2023-12-14T02:59:28;35.38;;;16.00;;
25758;SDS011;13604;52.496;13.456;2023-12-14T03:01:54;31.52;;;15.13;;
25758;SDS011;13604;52.496;13.456;2023-12-14T03:04:19;36.83;;;15.15;;
25758;SDS011;13604;52.496;13.456;2023-12-14T03:06:44;38.75;;;15.80;;
25758;SDS011;13604;52.496;13.456;2023-12-14T03:09:10;31.13;;;14.32;;
25758;SDS011;13604;52.496;13.456;2023-12-14T03:11:35;33.55;;;14.43;;
25758;SDS011;13604;52.496;13.456;2023-12-14T03:14:00;31.98;;;14.65;;
25758;SDS011;13604;52.496;13.456;2023-12-14T03:16:26;32.67;;;14.98;;
25758;SDS011;13604;52.496;13.456;2023-12-14T03:18:57;33.55;;;14.63;;
25758;SDS011;13604;52.496;13.456;2023-12-14T03:24:01;34.73;;;14.70;;
25758;SDS011;13604;52.496;13.456;2023-12-14T03:26:26;35.58;;;16.08;;
25758;SDS011;13604;52.496;13.456;2023-12-14T03:28:51;36.35;;;15.57;;
25758;SDS011;13604;52.496;13.456;2023-12-14T03:31:17;34.55;;;15.95;;
25758;SDS011;13604;52.496;13.456;2023-12-14T03:33:42;36.47;;;15.85;;
25758;SDS011;13604;52.496;13.456;2023-12-14T03:36:07;36.83;;;16.00;;
25758;SDS011;13604;52.496;13.456;2023-12-14T03:38:33;30.55;;;14.45;;
25758;SDS011;13604;52.496;13.456;2023-12-14T03:40:58;35.30;;;15.63;;
25758;SDS011;13604;52.496;13.456;2023-12-14T03:43:23;35.38;;;14.90;;
25758;SDS011;13604;52.496;13.456;2023-12-14T03:45:49;35.28;;;15.50;;
25758;SDS011;13604;52.496;13.456;2023-12-14T03:48:14;38.90;;;15.68;;
25758;SDS011;13604;52.496;13.456;2023-12-14T03:50:40;41.58;;;15.68;;
25758;SDS011;13604;52.496;13.456;2023-12-14T03:53:05;37.33;;;15.30;;
25758;SDS011;13604;52.496;13.456;2023-12-14T03:55:31;35.28;;;15.48;;
25758;SDS011;13604;52.496;13.456;2023-12-14T03:57:56;35.50;;;14.88;;
25758;SDS011;13604;52.496;13.456;2023-12-14T04:00:21;32.90;;;14.07;;
25758;SDS011;13604;52.496;13.456;2023-12-14T04:02:47;27.88;;;13.98;;
25758;SDS011;13604;52.496;13.456;2023-12-14T04:05:12;27.30;;;13.63;;
25758;SDS011;13604;52.496;13.456;2023-12-14T04:07:37;29.58;;;14.57;;
25758;SDS011;13604;52.496;13.456;2023-12-14T04:10:06;29.08;;;13.93;;
25758;SDS011;13604;52.496;13.456;2023-12-14T04:12:33;31.58;;;13.73;;
25758;SDS011;13604;52.496;13.456;2023-12-14T04:14:59;32.28;;;14.07;;
25758;SDS011;13604;52.496;13.456;2023-12-14T04:17:24;27.83;;;13.07;;
25758;SDS011;13604;52.496;13.456;2023-12-14T04:19:50;26.88;;;12.68;;
25758;SDS011;13604;52.496;13.456;2023-12-14T04:22:15;29.10;;;13.88;;
25758;SDS011;13604;52.496;13.456;2023-12-14T04:24:40;24.90;;;12.90;;
25758;SDS011;13604;52.496;13.456;2023-12-14T04:27:05;23.02;;;12.32;;
25758;SDS011;13604;52.496;13.456;2023-12-14T04:29:31;26.20;;;13.07;;
25758;SDS011;13604;52.496;13.456;2023-12-14T04:31:56;28.20;;;13.45;;
25758;SDS011;13604;52.496;13.456;2023-12-14T04:34:21;26.10;;;12.15;;
25758;SDS011;13604;52.496;13.456;2023-12-14T04:36:47;27.52;;;13.02;;
25758;SDS011;13604;52.496;13.456;2023-12-14T04:39:13;27.98;;;12.38;;
25758;SDS011;13604;52.496;13.456;2023-12-14T04:41:38;24.80;;;12.00;;
25758;SDS011;13604;52.496;13.456;2023-12-14T04:44:03;23.92;;;12.15;;
25758;SDS011;13604;52.496;13.456;2023-12-14T04:46:29;27.02;;;12.75;;
25758;SDS011;13604;52.496;13.456;2023-12-14T04:48:54;27.42;;;12.82;;
25758;SDS011;13604;52.496;13.456;2023-12-14T04:51:20;26.67;;;12.60;;
25758;SDS011;13604;52.496;13.456;2023-12-14T04:53:45;23.58;;;12.45;;
25758;SDS011;13604;52.496;13.456;2023-12-14T04:56:11;25.15;;;12.50;;
25758;SDS011;13604;52.496;13.456;2023-12-14T04:58:37;27.42;;;13.80;;
25758;SDS011;13604;52.496;13.456;2023-12-14T05:01:03;26.08;;;11.60;;
25758;SDS011;13604;52.496;13.456;2023-12-14T05:03:28;33.20;;;13.68;;
25758;SDS011;13604;52.496;13.456;2023-12-14T05:05:54;27.15;;;12.93;;
25758;SDS011;13604;52.496;13.456;2023-12-14T05:08:19;26.35;;;13.45;;
25758;SDS011;13604;52.496;13.456;2023-12-14T05:10:44;28.63;;;13.30;;
25758;SDS011;13604;52.496;13.456;2023-12-14T05:13:10;27.00;;;13.55;;
25758;SDS011;13604;52.496;13.456;2023-12-14T05:15:35;26.00;;;12.70;;
25758;SDS011;13604;52.496;13.456;2023-12-14T05:18:00;25.70;;;13.38;;
25758;SDS011;13604;52.496;13.456;2023-12-14T05:20:25;25.02;;;12.63;;
25758;SDS011;13604;52.496;13.456;2023-12-14T05:22:51;28.45;;;13.07;;
25758;SDS011;13604;52.496;13.456;2023-12-14T05:25:16;24.17;;;13.90;;
25758;SDS011;13604;52.496;13.456;2023-12-14T05:27:41;21.88;;;12.02;;
25758;SDS011;13604;52.496;13.456;2023-12-14T05:30:07;26.67;;;13.40;;
25758;SDS011;13604;52.496;13.456;2023-12-14T05:32:33;25.50;;;13.05;;
25758;SDS011;13604;52.496;13.456;2023-12-14T05:34:58;23.20;;;13.05;;
25758;SDS011;13604;52.496;13.456;2023-12-14T05:37:24;20.98;;;11.82;;
25758;SDS011;13604;52.496;13.456;2023-12-14T05:39:50;27.80;;;13.05;;
25758;SDS011;13604;52.496;13.456;2023-12-14T05:42:16;21.23;;;11.18;;
25758;SDS011;13604;52.496;13.456;2023-12-14T05:44:42;27.83;;;14.00;;
25758;SDS011;13604;52.496;13.456;2023-12-14T05:47:09;28.05;;;12.90;;
25758;SDS011;13604;52.496;13.456;2023-12-14T05:49:34;23.83;;;13.05;;
25758;SDS011;13604;52.496;13.456;2023-12-14T05:52:00;22.13;;;12.85;;
25758;SDS011;13604;52.496;13.456;2023-12-14T05:54:25;26.05;;;13.13;;
25758;SDS011;13604;52.496;13.456;2023-12-14T05:56:50;23.92;;;12.63;;
25758;SDS011;13604;52.496;13.456;2023-12-14T05:59:15;19.60;;;11.63;;
25758;SDS011;13604;52.496;13.456;2023-12-14T06:01:41;20.67;;;12.13;;
25758;SDS011;13604;52.496;13.456;2023-12-14T06:04:08;25.13;;;12.55;;
25758;SDS011;13604;52.496;13.456;2023-12-14T06:06:33;24.00;;;12.38;;
25758;SDS011;13604;52.496;13.456;2023-12-14T06:08:58;23.52;;;11.88;;
25758;SDS011;13604;52.496;13.456;2023-12-14T06:11:23;23.25;;;12.57;;
25758;SDS011;13604;52.496;13.456;2023-12-14T06:13:49;27.30;;;13.57;;
25758;SDS011;13604;52.496;13.456;2023-12-14T06:16:14;23.20;;;12.23;;
25758;SDS011;13604;52.496;13.456;2023-12-14T06:18:40;22.50;;;11.95;;
25758;SDS011;13604;52.496;13.456;2023-12-14T06:21:07;21.98;;;12.48;;
25758;SDS011;13604;52.496;13.456;2023-12-14T06:23:33;19.58;;;11.40;;
25758;SDS011;13604;52.496;13.456;2023-12-14T06:26:00;18.40;;;11.10;;
25758;SDS011;13604;52.496;13.456;2023-12-14T06:28:28;21.38;;;11.65;;
25758;SDS011;13604;52.496;13.456;2023-12-14T06:30:53;20.25;;;11.75;;
25758;SDS011;13604;52.496;13.456;2023-12-14T06:33:18;20.33;;;10.95;;
25758;SDS011;13604;52.496;13.456;2023-12-14T06:35:44;21.80;;;12.15;;
25758;SDS011;13604;52.496;13.456;2023-12-14T06:38:09;21.75;;;12.23;;
25758;SDS011;13604;52.496;13.456;2023-12-14T06:40:34;21.63;;;12.40;;
25758;SDS011;13604;52.496;13.456;2023-12-14T06:43:00;24.50;;;12.63;;
25758;SDS011;13604;52.496;13.456;2023-12-14T06:45:28;29.00;;;12.40;;
25758;SDS011;13604;52.496;13.456;2023-12-14T06:47:53;23.77;;;13.15;;
25758;SDS011;13604;52.496;13.456;2023-12-14T06:50:18;25.83;;;13.60;;
25758;SDS011;13604;52.496;13.456;2023-12-14T06:52:44;25.92;;;14.32;;
25758;SDS011;13604;52.496;13.456;2023-12-14T06:55:09;25.67;;;14.57;;
25758;SDS011;13604;52.496;13.456;2023-12-14T06:57:35;23.88;;;13.63;;
25758;SDS011;13604;52.496;13.456;2023-12-14T07:00:01;25.17;;;14.13;;
25758;SDS011;13604;52.496;13.456;2023-12-14T07:02:26;27.38;;;13.63;;
25758;SDS011;13604;52.496;13.456;2023-12-14T07:04:51;27.52;;;14.88;;
25758;SDS011;13604;52.496;13.456;2023-12-14T07:07:17;24.50;;;14.52;;
25758;SDS011;13604;52.496;13.456;2023-12-14T07:09:42;25.45;;;14.27;;
25758;SDS011;13604;52.496;13.456;2023-12-14T07:12:09;25.95;;;14.02;;
25758;SDS011;13604;52.496;13.456;2023-12-14T07:14:36;23.67;;;13.13;;
25758;SDS011;13604;52.496;13.456;2023-12-14T07:17:02;25.27;;;13.90;;
25758;SDS011;13604;52.496;13.456;2023-12-14T07:19:27;26.48;;;14.60;;
25758;SDS011;13604;52.496;13.456;2023-12-14T07:21:52;26.83;;;15.05;;
25758;SDS011;13604;52.496;13.456;2023-12-14T07:24:18;25.30;;;14.02;;
25758;SDS011;13604;52.496;13.456;2023-12-14T07:26:43;26.45;;;14.50;;
25758;SDS011;13604;52.496;13.456;2023-12-14T07:29:08;23.83;;;13.85;;
25758;SDS011;13604;52.496;13.456;2023-12-14T07:31:34;25.33;;;14.45;;
25758;SDS011;13604;52.496;13.456;2023-12-14T07:33:59;26.40;;;13.73;;
25758;SDS011;13604;52.496;13.456;2023-12-14T07:36:24;28.35;;;14.48;;
25758;SDS011;13604;52.496;13.456;2023-12-14T07:38:50;25.25;;;14.15;;
25758;SDS011;13604;52.496;13.456;2023-12-14T07:41:15;23.08;;;13.43;;
25758;SDS011;13604;52.496;13.456;2023-12-14T07:43:40;25.65;;;14.43;;
25758;SDS011;13604;52.496;13.456;2023-12-14T07:46:06;23.30;;;14.23;;
25758;SDS011;13604;52.496;13.456;2023-12-14T07:48:31;26.58;;;14.85;;
25758;SDS011;13604;52.496;13.456;2023-12-14T07:50:56;23.58;;;13.38;;
25758;SDS011;13604;52.496;13.456;2023-12-14T07:53:22;28.33;;;14.48;;
25758;SDS011;13604;52.496;13.456;2023-12-14T07:55:47;25.13;;;15.02;;
25758;SDS011;13604;52.496;13.456;2023-12-14T07:58:12;27.83;;;15.48;;
25758;SDS011;13604;52.496;13.456;2023-12-14T08:00:38;26.35;;;14.98;;
25758;SDS011;13604;52.496;13.456;2023-12-14T08:03:03;28.17;;;15.80;;
25758;SDS011;13604;52.496;13.456;2023-12-14T08:05:28;26.95;;;16.10;;
25758;SDS011;13604;52.496;13.456;2023-12-14T08:07:54;30.95;;;17.77;;
25758;SDS011;13604;52.496;13.456;2023-12-14T08:10:19;31.25;;;16.38;;
25758;SDS011;13604;52.496;13.456;2023-12-14T08:12:44;30.95;;;16.52;;
25758;SDS011;13604;52.496;13.456;2023-12-14T08:15:12;29.05;;;16.65;;
25758;SDS011;13604;52.496;13.456;2023-12-14T08:17:37;34.85;;;17.33;;
25758;SDS011;13604;52.496;13.456;2023-12-14T08:20:02;28.08;;;15.95;;
25758;SDS011;13604;52.496;13.456;2023-12-14T08:22:32;31.83;;;16.27;;
25758;SDS011;13604;52.496;13.456;2023-12-14T08:24:57;30.58;;;16.48;;
25758;SDS011;13604;52.496;13.456;2023-12-14T08:27:23;28.08;;;16.05;;
25758;SDS011;13604;52.496;13.456;2023-12-14T08:29:48;33.10;;;16.95;;
25758;SDS011;13604;52.496;13.456;2023-12-14T08:32:13;30.30;;;16.73;;
25758;SDS011;13604;52.496;13.456;2023-12-14T08:34:40;33.03;;;17.02;;
25758;SDS011;13604;52.496;13.456;2023-12-14T08:37:05;31.13;;;17.20;;
25758;SDS011;13604;52.496;13.456;2023-12-14T08:39:31;28.38;;;15.73;;
25758;SDS011;13604;52.496;13.456;2023-12-14T08:41:56;30.30;;;16.23;;
25758;SDS011;13604;52.496;13.456;2023-12-14T08:44:21;30.08;;;16.95;;
25758;SDS011;13604;52.496;13.456;2023-12-14T08:46:47;29.83;;;16.15;;
25758;SDS011;13604;52.496;13.456;2023-12-14T08:49:12;30.13;;;16.23;;
25758;SDS011;13604;52.496;13.456;2023-12-14T08:51:38;29.33;;;16.73;;
25758;SDS011;13604;52.496;13.456;2023-12-14T08:54:04;27.48;;;15.55;;
25758;SDS011;13604;52.496;13.456;2023-12-14T08:56:29;31.48;;;16.55;;
25758;SDS011;13604;52.496;13.456;2023-12-14T08:58:55;30.05;;;17.00;;
25758;SDS011;13604;52.496;13.456;2023-12-14T09:01:21;24.95;;;15.32;;
25758;SDS011;13604;52.496;13.456;2023-12-14T09:03:47;34.22;;;16.95;;
25758;SDS011;13604;52.496;13.456;2023-12-14T09:06:12;30.40;;;16.58;;
25758;SDS011;13604;52.496;13.456;2023-12-14T09:08:39;28.00;;;16.13;;
25758;SDS011;13604;52.496;13.456;2023-12-14T09:11:04;28.77;;;15.38;;
25758;SDS011;13604;52.496;13.456;2023-12-14T09:13:30;27.23;;;15.68;;
25758;SDS011;13604;52.496;13.456;2023-12-14T09:15:55;31.90;;;16.42;;
25758;SDS011;13604;52.496;13.456;2023-12-14T09:18:20;28.30;;;15.40;;
25758;SDS011;13604;52.496;13.456;2023-12-14T09:20:47;27.20;;;15.90;;
25758;SDS011;13604;52.496;13.456;2023-12-14T09:23:14;28.75;;;15.45;;
25758;SDS011;13604;52.496;13.456;2023-12-14T09:25:40;27.30;;;15.13;;
25758;SDS011;13604;52.496;13.456;2023-12-14T09:28:05;25.75;;;14.13;;
25758;SDS011;13604;52.496;13.456;2023-12-14T09:30:30;30.27;;;14.27;;
25758;SDS011;13604;52.496;13.456;2023-12-14T09:32:56;25.85;;;13.73;;
25758;SDS011;13604;52.496;13.456;2023-12-14T09:35:21;20.73;;;13.10;;
25758;SDS011;13604;52.496;13.456;2023-12-14T09:37:46;21.63;;;12.45;;
25758;SDS011;13604;52.496;13.456;2023-12-14T09:40:11;24.52;;;13.50;;
25758;SDS011;13604;52.496;13.456;2023-12-14T09:42:38;24.13;;;12.55;;
25758;SDS011;13604;52.496;13.456;2023-12-14T09:45:04;20.63;;;12.15;;
25758;SDS011;13604;52.496;13.456;2023-12-14T09:47:31;21.17;;;12.32;;
25758;SDS011;13604;52.496;13.456;2023-12-14T09:49:58;21.70;;;11.25;;
25758;SDS011;13604;52.496;13.456;2023-12-14T09:52:24;22.05;;;11.75;;
25758;SDS011;13604;52.496;13.456;2023-12-14T09:54:50;19.02;;;11.55;;
25758;SDS011;13604;52.496;13.456;2023-12-14T09:57:15;18.05;;;11.02;;
25758;SDS011;13604;52.496;13.456;2023-12-14T09:59:40;19.38;;;11.40;;
25758;SDS011;13604;52.496;13.456;2023-12-14T10:02:10;20.60;;;11.57;;
25758;SDS011;13604;52.496;13.456;2023-12-14T10:04:37;17.40;;;11.07;;
25758;SDS011;13604;52.496;13.456;2023-12-14T10:07:02;21.48;;;12.70;;
25758;SDS011;13604;52.496;13.456;2023-12-14T10:09:31;22.42;;;12.45;;
25758;SDS011;13604;52.496;13.456;2023-12-14T10:12:02;20.48;;;12.50;;
25758;SDS011;13604;52.496;13.456;2023-12-14T10:14:31;21.13;;;12.57;;
25758;SDS011;13604;52.496;13.456;2023-12-14T10:16:57;22.20;;;12.10;;
25758;SDS011;13604;52.496;13.456;2023-12-14T10:19:23;25.17;;;14.20;;
25758;SDS011;13604;52.496;13.456;2023-12-14T10:21:49;22.83;;;13.55;;
25758;SDS011;13604;52.496;13.456;2023-12-14T10:24:15;27.45;;;14.88;;
25758;SDS011;13604;52.496;13.456;2023-12-14T10:26:41;24.17;;;13.45;;
25758;SDS011;13604;52.496;13.456;2023-12-14T10:29:06;22.85;;;13.60;;
25758;SDS011;13604;52.496;13.456;2023-12-14T10:31:32;24.52;;;13.93;;
25758;SDS011;13604;52.496;13.456;2023-12-14T10:34:02;21.92;;;13.68;;
25758;SDS011;13604;52.496;13.456;2023-12-14T10:36:28;24.00;;;14.38;;
25758;SDS011;13604;52.496;13.456;2023-12-14T10:38:56;24.38;;;13.05;;
25758;SDS011;13604;52.496;13.456;2023-12-14T10:41:23;26.05;;;14.80;;
25758;SDS011;13604;52.496;13.456;2023-12-14T10:43:48;24.42;;;13.75;;
25758;SDS011;13604;52.496;13.456;2023-12-14T10:46:16;24.50;;;13.90;;
25758;SDS011;13604;52.496;13.456;2023-12-14T10:48:42;23.92;;;13.00;;
25758;SDS011;13604;52.496;13.456;2023-12-14T10:51:11;23.50;;;13.80;;
25758;SDS011;13604;52.496;13.456;2023-12-14T10:53:37;28.02;;;14.52;;
25758;SDS011;13604;52.496;13.456;2023-12-14T10:56:04;24.58;;;14.73;;
25758;SDS011;13604;52.496;13.456;2023-12-14T10:58:53;27.45;;;14.80;;
25758;SDS011;13604;52.496;13.456;2023-12-14T11:01:23;29.27;;;15.63;;
25758;SDS011;13604;52.496;13.456;2023-12-14T11:03:49;24.67;;;14.50;;
25758;SDS011;13604;52.496;13.456;2023-12-14T11:08:51;31.25;;;16.08;;
25758;SDS011;13604;52.496;13.456;2023-12-14T11:11:17;28.42;;;14.77;;
25758;SDS011;13604;52.496;13.456;2023-12-14T11:13:46;24.73;;;13.98;;
25758;SDS011;13604;52.496;13.456;2023-12-14T11:16:15;23.60;;;14.45;;
25758;SDS011;13604;52.496;13.456;2023-12-14T11:18:40;27.90;;;15.20;;
25758;SDS011;13604;52.496;13.456;2023-12-14T11:21:06;25.90;;;14.45;;
25758;SDS011;13604;52.496;13.456;2023-12-14T11:23:40;24.30;;;14.02;;
25758;SDS011;13604;52.496;13.456;2023-12-14T11:26:10;26.92;;;14.50;;
25758;SDS011;13604;52.496;13.456;2023-12-14T11:28:36;26.73;;;14.75;;
25758;SDS011;13604;52.496;13.456;2023-12-14T11:31:03;26.85;;;14.77;;
25758;SDS011;13604;52.496;13.456;2023-12-14T11:33:34;25.88;;;15.90;;
25758;SDS011;13604;52.496;13.456;2023-12-14T11:36:01;26.60;;;14.48;;
25758;SDS011;13604;52.496;13.456;2023-12-14T11:38:28;23.63;;;14.77;;
25758;SDS011;13604;52.496;13.456;2023-12-14T11:40:54;23.17;;;14.07;;
25758;SDS011;13604;52.496;13.456;2023-12-14T11:43:19;21.63;;;12.82;;
25758;SDS011;13604;52.496;13.456;2023-12-14T11:45:48;20.50;;;12.48;;
25758;SDS011;13604;52.496;13.456;2023-12-14T11:48:14;20.23;;;12.88;;
25758;SDS011;13604;52.496;13.456;2023-12-14T11:50:40;24.17;;;14.35;;
25758;SDS011;13604;52.496;13.456;2023-12-14T11:53:07;23.58;;;13.27;;
25758;SDS011;13604;52.496;13.456;2023-12-14T11:55:37;24.10;;;14.25;;
25758;SDS011;13604;52.496;13.456;2023-12-14T11:58:04;19.95;;;12.55;;
25758;SDS011;13604;52.496;13.456;2023-12-14T12:00:30;21.80;;;13.50;;
25758;SDS011;13604;52.496;13.456;2023-12-14T12:05:58;24.60;;;12.35;;
25758;SDS011;13604;52.496;13.456;2023-12-14T12:08:23;20.80;;;12.35;;
25758;SDS011;13604;52.496;13.456;2023-12-14T12:10:49;20.67;;;13.05;;
25758;SDS011;13604;52.496;13.456;2023-12-14T12:13:18;23.52;;;13.23;;
25758;SDS011;13604;52.496;13.456;2023-12-14T12:15:45;19.85;;;12.75;;
25758;SDS011;13604;52.496;13.456;2023-12-14T12:18:11;23.15;;;13.32;;
25758;SDS011;13604;52.496;13.456;2023-12-14T12:20:38;21.63;;;13.32;;
25758;SDS011;13604;52.496;13.456;2023-12-14T12:23:03;21.70;;;13.05;;
25758;SDS011;13604;52.496;13.456;2023-12-14T12:25:29;22.60;;;13.65;;
25758;SDS011;13604;52.496;13.456;2023-12-14T12:27:58;21.75;;;12.48;;
25758;SDS011;13604;52.496;13.456;2023-12-14T12:30:25;20.67;;;12.35;;
25758;SDS011;13604;52.496;13.456;2023-12-14T12:32:50;20.23;;;12.30;;
25758;SDS011;13604;52.496;13.456;2023-12-14T12:35:20;21.02;;;12.43;;
25758;SDS011;13604;52.496;13.456;2023-12-14T12:37:46;21.42;;;12.32;;
25758;SDS011;13604;52.496;13.456;2023-12-14T12:40:11;21.40;;;12.85;;
25758;SDS011;13604;52.496;13.456;2023-12-14T12:42:37;23.70;;;13.70;;
25758;SDS011;13604;52.496;13.456;2023-12-14T12:45:03;22.63;;;12.50;;
25758;SDS011;13604;52.496;13.456;2023-12-14T12:47:29;23.73;;;14.00;;
25758;SDS011;13604;52.496;13.456;2023-12-14T12:49:55;21.98;;;13.18;;
25758;SDS011;13604;52.496;13.456;2023-12-14T12:52:20;26.65;;;14.13;;
25758;SDS011;13604;52.496;13.456;2023-12-14T12:54:45;26.17;;;13.15;;
25758;SDS011;13604;52.496;13.456;2023-12-14T12:57:11;19.05;;;11.38;;
25758;SDS011;13604;52.496;13.456;2023-12-14T12:59:36;21.70;;;12.73;;
25758;SDS011;13604;52.496;13.456;2023-12-14T13:02:01;21.50;;;12.80;;
25758;SDS011;13604;52.496;13.456;2023-12-14T13:04:27;21.45;;;12.40;;
25758;SDS011;13604;52.496;13.456;2023-12-14T13:06:55;22.13;;;13.25;;
25758;SDS011;13604;52.496;13.456;2023-12-14T13:09:20;23.02;;;13.35;;
25758;SDS011;13604;52.496;13.456;2023-12-14T13:11:46;22.10;;;12.90;;
25758;SDS011;13604;52.496;13.456;2023-12-14T13:14:14;19.58;;;12.20;;
25758;SDS011;13604;52.496;13.456;2023-12-14T13:16:40;22.13;;;13.35;;
25758;SDS011;13604;52.496;13.456;2023-12-14T13:19:06;17.60;;;11.38;;
25758;SDS011;13604;52.496;13.456;2023-12-14T13:21:31;24.20;;;12.98;;
25758;SDS011;13604;52.496;13.456;2023-12-14T13:23:58;25.92;;;12.80;;
25758;SDS011;13604;52.496;13.456;2023-12-14T13:26:24;20.85;;;12.40;;
25758;SDS011;13604;52.496;13.456;2023-12-14T13:28:49;22.45;;;12.60;;
25758;SDS011;13604;52.496;13.456;2023-12-14T13:31:16;20.25;;;11.75;;
25758;SDS011;13604;52.496;13.456;2023-12-14T13:33:41;20.75;;;12.63;;
25758;SDS011;13604;52.496;13.456;2023-12-14T13:36:06;25.10;;;13.50;;
25758;SDS011;13604;52.496;13.456;2023-12-14T13:38:33;20.90;;;12.82;;
25758;SDS011;13604;52.496;13.456;2023-12-14T13:40:59;22.25;;;13.00;;
25758;SDS011;13604;52.496;13.456;2023-12-14T13:43:25;20.75;;;13.25;;
25758;SDS011;13604;52.496;13.456;2023-12-14T13:45:50;23.77;;;14.18;;
25758;SDS011;13604;52.496;13.456;2023-12-14T13:48:17;23.42;;;14.50;;
25758;SDS011;13604;52.496;13.456;2023-12-14T13:50:43;25.17;;;14.30;;
25758;SDS011;13604;52.496;13.456;2023-12-14T13:53:08;25.65;;;14.07;;
25758;SDS011;13604;52.496;13.456;2023-12-14T13:55:33;22.40;;;13.40;;
25758;SDS011;13604;52.496;13.456;2023-12-14T13:57:59;24.67;;;14.93;;
25758;SDS011;13604;52.496;13.456;2023-12-14T14:00:25;23.40;;;14.00;;
25758;SDS011;13604;52.496;13.456;2023-12-14T14:02:51;27.58;;;14.65;;
25758;SDS011;13604;52.496;13.456;2023-12-14T14:05:16;25.85;;;14.77;;
25758;SDS011;13604;52.496;13.456;2023-12-14T14:07:41;25.88;;;14.30;;
25758;SDS011;13604;52.496;13.456;2023-12-14T14:10:07;22.42;;;13.35;;